x

Buoy E01 - Central Maine Shelf (44032) Wave Buoy

7:04 - Sun 4th Dec 2016 All times are EST. -5 hours from GMT.

  • Sig Wave height 2.6ft
  • Peak Period 3s
  • Wind
    18mph, 22mph gusts
  • Luft Temp 36°f
  • Sea Pressure 1021.4mb
  • Buoy E01 - Central Maine Shelf
  • Buoy E01 - Central Maine Shelf

More Historic Weather Station data

Upgrade to MSW Pro to gain access to the past 30 days of data for over 8000 Wavebouys and Weather Stations around the globe.

Join Pro

Comparision Forecast

View Surf forecast
   
So 12/04 7:04 2.5ft 3s 18 22 mph 1021.4mb - 36f
6:04 3ft 3s 20 25 mph 1021.1mb 50f 37f
5:04 2.5ft 3s 20 25 mph 1021mb 50f 38f
4:04 2.5ft 3s 18 22 mph 1020mb - 38f
3:04 2.5ft 4s 18 22 mph 1019.3mb - 39f
2:04 2ft 3s 18 22 mph 1018.8mb - 39f
1:04 2ft 3s 16 20 mph 1018.7mb 50f 38f
12:04 2.5ft 3s 11 18 mph 1019mb - 37f
11:04 2ft 3s 16 20 mph 1019.4mb - 36f
10:04 2.5ft 3s 16 20 mph 1019.8mb - 35f
9:04 2.5ft 3s 20 25 mph 1019.6mb - 35f
8:04 2.5ft 3s 18 22 mph 1019.3mb - 35f
7:04 2.5ft 3s 18 22 mph 1018.8mb 50f 36f
6:04 2.5ft 3s 18 22 mph 1018.4mb - 36f
5:04 2.5ft 3s 20 25 mph 1017.7mb - 36f
4:04 3ft 4s 20 27 mph 1017.3mb - 37f
3:04 3ft 4s 25 29 mph 1016.7mb - 37f
2:04 3.5ft 4s 22 27 mph 1016.5mb 50f 37f
1:04 3.5ft 4s 25 29 mph 1015.7mb 51f 37f
12:04 3ft 4s 25 31 mph 1015.2mb 51f 38f
Sa 12/03 11:04 3.5ft 4s 22 29 mph 1015.1mb 51f 38f
10:04 3.5ft 4s 25 29 mph 1014.7mb - 38f
9:04 3ft 4s 22 29 mph 1014.6mb - 38f
8:04 3ft 4s 22 27 mph 1014.2mb - 39f
7:04 2.5ft 3s 22 25 mph 1013.4mb - 40f
6:04 3ft 4s 20 25 mph 1012.5mb - 40f
5:04 2.5ft 3s 18 22 mph 1011.5mb - 41f
4:04 3ft 4s 20 25 mph 1010.3mb 51f 42f
3:04 3.5ft 4s 20 25 mph 1009.5mb 51f 42f
2:04 3.5ft 4s 20 27 mph 1008.4mb 51f 43f
1:04 3ft 4s 20 27 mph 1008.1mb 51f 43f
12:04 3.5ft 4s 20 27 mph 1007.8mb 51f 42f
11:04 3.5ft 4s 20 25 mph 1007.7mb 51f 41f
10:04 4.5ft 4s 27 34 mph 1007.4mb 51f 41f
9:04 4ft 5s 27 31 mph 1006.8mb 51f 41f
8:04 3.5ft 5s 25 34 mph 1006.2mb 50f 42f
7:04 4ft 5s 22 29 mph 1005.5mb - 42f
6:04 3.5ft 5s 22 27 mph 1005mb 51f 42f
5:04 3.5ft 5s 25 29 mph 1004.3mb - 42f
3:04 4ft 4s 22 27 mph 1004mb - 42f
2:04 3.5ft 6s 22 27 mph 1003.8mb 51f 42f
1:04 3.5ft 6s 20 27 mph 1003.4mb - 43f
12:04 4.5ft 5s 16 20 mph 1003.2mb 51f 42f
Fr 12/02 11:04 4.5ft 5s 22 25 mph 1003.6mb 51f 43f
10:04 5ft 5s 22 29 mph 1003.1mb - 46f
9:04 5ft 5s 22 27 mph 1003.3mb - 47f
8:04 5.5ft 11s 20 22 mph 1003.7mb 51f 47f
7:04 3.5ft 5s 20 25 mph 1003.9mb 51f 48f
6:04  -   -  18 22 mph 1004mb 51f 49f
5:04 3.5ft 4s 16 20 mph 1004mb 51f 49f
3:04 3.5ft 5s 16 18 mph 1003.8mb 51f 49f
2:04 4.5ft 11s 16 18 mph 1003.6mb 51f 49f
1:04  -   -  13 16 mph 1003.7mb 51f 47f
12:04 3.5ft 5s 16 18 mph 1004mb 51f 46f
11:04 4ft 5s 9 13 mph 1004.5mb 51f 46f
10:04 3.5ft 6s 13 16 mph 1005.4mb 51f 45f
9:04 5.5ft 11s 13 16 mph 1005.6mb 51f 45f
8:04 6ft 11s 16 20 mph 1005.3mb 51f 46f
7:04 6ft 11s 18 22 mph 1005mb 51f 46f
6:04 6ft 11s 16 20 mph 1004.4mb 51f 46f
5:04 5ft 5s 18 20 mph 1003.5mb 51f 46f
4:04 6.5ft 11s 18 20 mph 1003.3mb 51f 46f
3:04 4.5ft 6s 18 22 mph 1002.7mb 51f 46f
2:04 5ft 6s 18 20 mph 1002.4mb - 46f
1:04 6.5ft 6s 18 20 mph 1001.3mb 51f 47f
12:04 7ft 6s 20 25 mph 1000.8mb 51f 47f
Do 12/01 11:04 5.5ft 8s 20 25 mph 1000.6mb - 47f
10:04 5.5ft 8s 20 25 mph 999.7mb 51f 48f
9:04 4.5ft 8s 20 22 mph 999.1mb 51f 48f
8:04 3.5ft 8s 7 11 mph 999.3mb 51f 46f
7:04 4.5ft 8s 4 9 mph 999.1mb 51f 44f
6:04 5ft 8s 4 9 mph 998.6mb 51f 44f
5:04 5ft 8s 9 11 mph 998.5mb 51f 44f
4:04 5.5ft 11s 11 13 mph 997.5mb 51f 45f
3:04 7ft 11s 16 20 mph 996.7mb 51f 45f
2:04 7ft 8s 20 27 mph 996mb 51f 44f
12:04 10.5ft 11s 27 31 mph 993.8mb 51f 43f
11:04 10.5ft 11s 27 34 mph 992.6mb 51f 47f
10:04  -   -  13 16 mph 991.3mb 51f 52f
9:04 15ft 8s 20 25 mph 991.9mb 51f 53f
8:04 14ft 11s 20 27 mph 993.2mb 51f 52f
7:04 15.5ft 8s 34 43 mph 995mb 51f 50f
6:04 10.5ft 8s 34 43 mph 997.4mb 51f 49f
5:04 10ft 8s 31 38 mph 999.6mb 51f 49f
4:04 9.5ft 8s 31 36 mph 1003mb 51f 49f
3:04 8ft 6s 25 31 mph 1006.6mb 51f 48f